Time;durP1;ratioP1;P1;durP2;ratioP2;P2;SDS_P1;SDS_P2;PMS_P1;PMS_P2;Temp;Humidity;BMP_temperature;BMP_pressure;BME280_temperature;BME280_humidity;BME280_pressure;Samples;Min_cycle;Max_cycle;Signal;HPM_P1;HPM_P2
2022/06/26 00:01:21;;;;;;;;;;;18.60;99.90;;;;;;5034108;28;19925;-72
2022/06/26 00:03:48;;;;;;;;;;;18.50;99.90;;;;;;5014236;28;19963;-73
2022/06/26 00:06:15;;;;;;;;;;;18.60;99.90;;;;;;5031466;28;19925;-73
2022/06/26 00:08:41;;;;;;;;;;;18.50;99.90;;;;;;5042503;28;20363;-72
2022/06/26 00:11:10;;;;;;;;;;;18.40;99.90;;;;;;5053322;28;19928;-72
2022/06/26 00:13:36;;;;;;;;;;;18.40;99.90;;;;;;5033314;28;20340;-72
2022/06/26 00:16:03;;;;;;;;;;;18.50;99.90;;;;;;5032080;28;19925;-72
2022/06/26 00:18:30;;;;;;;;;;;18.30;99.90;;;;;;5033062;28;19941;-73
2022/06/26 00:20:57;;;;;;;;;;;18.30;99.90;;;;;;5032961;28;20016;-72
2022/06/26 00:23:24;;;;;;;;;;;18.40;99.90;;;;;;5032774;28;20343;-72
2022/06/26 00:25:50;;;;;;;;;;;18.60;99.90;;;;;;5032634;28;19929;-72
2022/06/26 00:28:18;;;;;;;;;;;18.60;99.90;;;;;;5045232;28;19928;-72
2022/06/26 00:30:45;;;;;;;;;;;18.80;99.90;;;;;;5053135;28;19925;-72
2022/06/26 00:33:12;;;;;;;;;;;18.60;99.90;;;;;;5052733;28;19928;-72
2022/06/26 00:35:39;;;;;;;;;;;18.50;99.90;;;;;;5051790;28;19971;-73
2022/06/26 00:38:06;;;;;;;;;;;18.10;99.90;;;;;;5032445;28;19929;-73
2022/06/26 00:40:32;;;;;;;;;;;18.00;99.90;;;;;;5032539;28;19973;-72
2022/06/26 00:42:59;;;;;;;;;;;18.00;99.90;;;;;;5032628;28;19929;-72
2022/06/26 00:45:27;;;;;;;;;;;18.00;99.90;;;;;;5032541;28;19925;-72
2022/06/26 00:47:54;;;;;;;;;;;17.90;99.90;;;;;;5032689;28;19925;-73
2022/06/26 00:50:21;;;;;;;;;;;17.90;99.90;;;;;;5032480;28;20385;-73
2022/06/26 00:52:50;;;;;;;;;;;17.80;99.90;;;;;;5051205;28;19925;-73
2022/06/26 00:55:17;;;;;;;;;;;17.70;99.90;;;;;;5052096;28;19925;-73
2022/06/26 00:57:44;;;;;;;;;;;17.70;99.90;;;;;;5035721;28;20019;-72
2022/06/26 01:00:12;;;;;;;;;;;17.60;99.90;;;;;;5033072;28;19929;-73
2022/06/26 01:02:40;;;;;;;;;;;17.70;99.90;;;;;;5031529;28;20435;-72
2022/06/26 01:05:08;;;;;;;;;;;17.70;99.90;;;;;;5031874;28;19925;-73
2022/06/26 01:07:35;;;;;;;;;;;17.70;99.90;;;;;;5030463;28;19972;-72
2022/06/26 01:10:02;;;;;;;;;;;17.70;99.90;;;;;;5031808;28;19983;-72
2022/06/26 01:12:29;;;;;;;;;;;17.70;99.90;;;;;;5032396;28;19979;-72
2022/06/26 01:14:55;;;;;;;;;;;17.70;99.90;;;;;;5032872;28;19929;-73
2022/06/26 01:17:22;;;;;;;;;;;17.50;99.90;;;;;;5030997;28;19925;-73
2022/06/26 01:19:51;;;;;;;;;;;17.40;99.90;;;;;;5037582;28;19936;-73
2022/06/26 01:22:18;;;;;;;;;;;17.40;99.90;;;;;;5033551;28;19925;-72
2022/06/26 01:24:46;;;;;;;;;;;17.30;99.90;;;;;;5032151;28;19928;-73
2022/06/26 01:27:13;;;;;;;;;;;17.30;99.90;;;;;;5042902;28;19925;-73
2022/06/26 01:29:40;;;;;;;;;;;17.30;99.90;;;;;;5042046;28;19971;-72
2022/06/26 01:32:07;;;;;;;;;;;17.30;99.90;;;;;;5046392;28;19925;-72
2022/06/26 01:34:34;;;;;;;;;;;17.30;99.90;;;;;;5051861;28;19971;-73
2022/06/26 01:37:01;;;;;;;;;;;17.30;99.90;;;;;;5051768;28;19948;-73
2022/06/26 01:39:28;;;;;;;;;;;17.30;99.90;;;;;;5051975;28;20347;-73
2022/06/26 01:41:56;;;;;;;;;;;17.30;99.90;;;;;;5034390;28;20328;-73
2022/06/26 01:44:23;;;;;;;;;;;17.30;99.90;;;;;;5031807;28;19926;-72
2022/06/26 01:46:50;;;;;;;;;;;17.30;99.90;;;;;;5030044;28;19987;-72
2022/06/26 01:49:17;;;;;;;;;;;17.30;99.90;;;;;;5026329;28;19925;-73
2022/06/26 01:51:44;;;;;;;;;;;17.30;99.90;;;;;;5031535;28;20347;-72
2022/06/26 01:54:13;;;;;;;;;;;17.10;99.90;;;;;;5015545;28;21806;-73
2022/06/26 01:56:39;;;;;;;;;;;17.10;99.90;;;;;;5031045;28;19933;-73
2022/06/26 01:59:08;;;;;;;;;;;17.00;99.90;;;;;;5030286;28;19925;-73
2022/06/26 02:01:34;;;;;;;;;;;17.10;99.90;;;;;;5032361;28;19925;-72
2022/06/26 02:04:01;;;;;;;;;;;17.00;99.90;;;;;;5031526;28;19979;-72
2022/06/26 02:06:28;;;;;;;;;;;17.10;99.90;;;;;;5033066;28;19926;-72
2022/06/26 02:08:55;;;;;;;;;;;17.10;99.90;;;;;;5032000;28;19926;-72
2022/06/26 02:14:06;;;;;;;;;;;17.00;99.90;;;;;;5031813;28;19928;-71
2022/06/26 02:16:34;;;;;;;;;;;17.00;99.90;;;;;;5031428;28;20381;-71
2022/06/26 02:19:01;;;;;;;;;;;17.10;99.90;;;;;;5029471;28;19925;-72
2022/06/26 02:21:29;;;;;;;;;;;17.10;99.90;;;;;;5030456;28;19925;-71
2022/06/26 02:23:56;;;;;;;;;;;17.20;99.90;;;;;;5034194;28;19925;-71
2022/06/26 02:26:23;;;;;;;;;;;17.10;99.90;;;;;;5034863;28;20451;-71
2022/06/26 02:28:50;;;;;;;;;;;17.00;99.90;;;;;;5020820;28;19925;-71
2022/06/26 02:31:17;;;;;;;;;;;17.00;99.90;;;;;;5035120;28;19925;-71
2022/06/26 02:33:45;;;;;;;;;;;17.00;99.90;;;;;;5035015;28;19926;-73
2022/06/26 02:36:12;;;;;;;;;;;16.90;99.90;;;;;;5034145;28;20032;-72
2022/06/26 02:38:41;;;;;;;;;;;17.00;99.90;;;;;;5033220;28;19956;-71
2022/06/26 02:41:08;;;;;;;;;;;17.00;99.90;;;;;;5033561;28;19933;-71
2022/06/26 02:43:35;;;;;;;;;;;16.90;99.90;;;;;;5033884;28;19971;-71
2022/06/26 02:46:02;;;;;;;;;;;17.00;99.90;;;;;;5033031;28;20385;-71
2022/06/26 02:48:29;;;;;;;;;;;17.00;99.90;;;;;;5034002;28;19925;-72
2022/06/26 02:50:57;;;;;;;;;;;16.90;99.90;;;;;;5034608;28;19925;-71
2022/06/26 02:53:24;;;;;;;;;;;16.90;99.90;;;;;;5035263;28;19929;-71
2022/06/26 02:55:51;;;;;;;;;;;17.00;99.90;;;;;;5034683;28;20297;-71
2022/06/26 02:58:18;;;;;;;;;;;17.10;99.90;;;;;;5034886;28;19929;-72
2022/06/26 03:00:44;;;;;;;;;;;17.00;99.90;;;;;;5035257;28;19971;-72
2022/06/26 03:03:11;;;;;;;;;;;16.90;99.90;;;;;;5035119;28;20274;-72
2022/06/26 03:05:38;;;;;;;;;;;16.80;99.90;;;;;;5034560;28;20229;-71
2022/06/26 03:08:06;;;;;;;;;;;16.70;99.90;;;;;;5034965;28;19975;-71
2022/06/26 03:10:33;;;;;;;;;;;16.70;99.90;;;;;;5034701;28;19933;-71
2022/06/26 03:13:00;;;;;;;;;;;16.70;99.90;;;;;;5034508;28;19971;-71
2022/06/26 03:15:27;;;;;;;;;;;16.70;99.90;;;;;;5034501;28;20012;-71
2022/06/26 03:17:55;;;;;;;;;;;16.60;99.90;;;;;;5034670;28;19971;-72
2022/06/26 03:20:21;;;;;;;;;;;16.50;99.90;;;;;;5034190;28;19987;-71
2022/06/26 03:22:50;;;;;;;;;;;16.50;99.90;;;;;;5034602;28;19925;-72
2022/06/26 03:25:18;;;;;;;;;;;16.40;99.90;;;;;;5034202;28;19925;-71
2022/06/26 03:27:45;;;;;;;;;;;16.40;99.90;;;;;;5034433;28;19932;-71
2022/06/26 03:30:12;;;;;;;;;;;16.50;99.90;;;;;;5034485;28;19972;-71
2022/06/26 03:32:39;;;;;;;;;;;16.50;99.90;;;;;;5033910;28;19987;-71
2022/06/26 03:35:06;;;;;;;;;;;16.50;99.90;;;;;;5034029;28;19959;-71
2022/06/26 03:37:33;;;;;;;;;;;16.50;99.90;;;;;;5034199;28;19932;-71
2022/06/26 03:40:00;;;;;;;;;;;16.60;99.90;;;;;;5034004;28;19929;-71
2022/06/26 03:42:28;;;;;;;;;;;16.60;99.90;;;;;;5034072;28;19925;-71
2022/06/26 03:44:55;;;;;;;;;;;16.50;99.90;;;;;;5033957;28;20281;-71
2022/06/26 03:47:22;;;;;;;;;;;16.60;99.90;;;;;;5033914;28;20363;-71
2022/06/26 03:49:53;;;;;;;;;;;16.50;99.90;;;;;;5033972;28;19925;-71
2022/06/26 03:52:21;;;;;;;;;;;16.50;99.90;;;;;;5034102;28;20012;-71
2022/06/26 03:54:47;;;;;;;;;;;16.60;99.90;;;;;;5033768;28;19929;-71
2022/06/26 03:57:14;;;;;;;;;;;16.60;99.90;;;;;;5033705;28;20375;-71
2022/06/26 03:59:43;;;;;;;;;;;16.50;99.90;;;;;;5034274;28;19987;-71
2022/06/26 04:02:09;;;;;;;;;;;16.60;99.90;;;;;;5033843;28;19925;-71
2022/06/26 04:04:36;;;;;;;;;;;16.70;99.90;;;;;;5033509;28;20373;-71
2022/06/26 04:07:03;;;;;;;;;;;16.70;99.90;;;;;;5033637;28;19928;-72
2022/06/26 04:09:30;;;;;;;;;;;16.80;99.90;;;;;;5033770;28;19925;-71
2022/06/26 04:11:57;;;;;;;;;;;16.80;99.90;;;;;;5033809;28;19925;-72
2022/06/26 04:14:24;;;;;;;;;;;16.90;99.90;;;;;;5033245;28;19933;-72
2022/06/26 04:16:52;;;;;;;;;;;17.00;99.90;;;;;;5033441;28;19929;-72
2022/06/26 04:19:19;;;;;;;;;;;17.10;99.90;;;;;;5033547;28;20344;-71
2022/06/26 04:21:45;;;;;;;;;;;17.20;99.90;;;;;;5033227;28;19971;-72
2022/06/26 04:24:13;;;;;;;;;;;17.20;99.90;;;;;;5033563;28;19925;-71
2022/06/26 04:26:39;;;;;;;;;;;17.30;99.90;;;;;;5033060;28;20401;-71
2022/06/26 04:29:06;;;;;;;;;;;17.30;99.90;;;;;;5033666;28;19979;-72
2022/06/26 04:31:33;;;;;;;;;;;17.30;99.90;;;;;;5033131;28;19932;-72
2022/06/26 04:34:01;;;;;;;;;;;17.40;99.90;;;;;;5033100;28;19925;-71
2022/06/26 04:36:28;;;;;;;;;;;17.30;99.90;;;;;;5032981;28;19950;-71
2022/06/26 04:38:55;;;;;;;;;;;17.40;99.90;;;;;;5033133;28;19933;-71
2022/06/26 04:41:35;;;;;;;;;;;17.50;99.90;;;;;;5032797;28;19983;-72
2022/06/26 04:44:03;;;;;;;;;;;17.60;99.90;;;;;;5032903;28;20281;-71
2022/06/26 04:46:30;;;;;;;;;;;17.60;99.90;;;;;;5032542;28;19929;-72
2022/06/26 04:48:57;;;;;;;;;;;17.60;99.90;;;;;;5032936;28;19925;-72
2022/06/26 04:51:25;;;;;;;;;;;17.70;99.90;;;;;;5032834;28;20344;-71
2022/06/26 04:53:52;;;;;;;;;;;17.80;99.90;;;;;;5032209;28;19987;-71
2022/06/26 04:56:18;;;;;;;;;;;17.80;99.90;;;;;;5032537;28;19971;-71
2022/06/26 04:58:45;;;;;;;;;;;17.90;99.90;;;;;;5033019;28;19991;-72
2022/06/26 05:01:12;;;;;;;;;;;18.00;99.90;;;;;;5032637;28;19968;-71
2022/06/26 05:03:39;;;;;;;;;;;18.00;99.90;;;;;;5032544;28;19929;-71
2022/06/26 05:06:06;;;;;;;;;;;18.00;99.90;;;;;;5032295;28;19926;-72
2022/06/26 05:08:34;;;;;;;;;;;18.10;99.90;;;;;;5032502;28;19929;-71
2022/06/26 05:11:01;;;;;;;;;;;18.20;99.90;;;;;;5032543;28;19925;-72
2022/06/26 05:13:27;;;;;;;;;;;18.30;99.90;;;;;;5032319;28;20274;-71
2022/06/26 05:15:54;;;;;;;;;;;18.30;99.90;;;;;;5032362;28;19925;-72
2022/06/26 05:18:21;;;;;;;;;;;18.40;99.90;;;;;;5032287;28;19972;-71
2022/06/26 05:20:48;;;;;;;;;;;18.50;99.90;;;;;;5034769;28;20439;-71
2022/06/26 05:23:15;;;;;;;;;;;18.60;99.90;;;;;;5040040;28;20329;-71
2022/06/26 05:25:43;;;;;;;;;;;18.60;99.90;;;;;;5040769;28;19979;-72
2022/06/26 05:28:10;;;;;;;;;;;18.70;99.90;;;;;;5039562;28;19979;-71
2022/06/26 05:30:37;;;;;;;;;;;18.70;99.90;;;;;;5038544;28;20454;-71
2022/06/26 05:33:04;;;;;;;;;;;18.80;99.90;;;;;;5031979;28;19971;-71
2022/06/26 05:35:31;;;;;;;;;;;18.90;99.90;;;;;;5031842;28;19926;-72
2022/06/26 05:37:58;;;;;;;;;;;19.00;99.90;;;;;;5032172;28;19932;-72
2022/06/26 05:40:24;;;;;;;;;;;19.20;99.90;;;;;;5032143;28;19971;-72
2022/06/26 05:42:53;;;;;;;;;;;19.30;99.90;;;;;;5032106;28;19925;-72
2022/06/26 05:45:20;;;;;;;;;;;19.40;99.90;;;;;;5031998;28;20480;-72
2022/06/26 05:47:47;;;;;;;;;;;19.50;99.90;;;;;;5032231;28;19971;-72
2022/06/26 05:50:14;;;;;;;;;;;19.60;99.90;;;;;;5032172;28;20282;-72
2022/06/26 05:52:41;;;;;;;;;;;19.80;99.90;;;;;;5119236;22;19979;-69
2022/06/26 05:55:08;;;;;;;;;;;19.90;99.90;;;;;;5031843;28;20355;-71
2022/06/26 05:57:35;;;;;;;;;;;20.00;99.90;;;;;;5032131;28;19925;-71
2022/06/26 06:00:04;;;;;;;;;;;20.20;99.90;;;;;;5031914;28;19929;-71
2022/06/26 06:02:30;;;;;;;;;;;20.30;99.90;;;;;;5025260;28;20308;-72
2022/06/26 06:04:57;;;;;;;;;;;20.40;99.90;;;;;;5013756;28;19980;-72
2022/06/26 06:07:24;;;;;;;;;;;20.40;99.90;;;;;;5016284;28;19980;-72
2022/06/26 06:09:51;;;;;;;;;;;20.60;99.90;;;;;;5015915;28;19979;-71
2022/06/26 06:12:18;;;;;;;;;;;20.80;99.90;;;;;;5016077;28;19925;-72
2022/06/26 06:14:45;;;;;;;;;;;20.90;99.90;;;;;;5015725;28;19929;-72
2022/06/26 06:19:57;;;;;;;;;;;21.20;99.90;;;;;;5015884;28;19932;-72
2022/06/26 06:22:24;;;;;;;;;;;21.20;99.90;;;;;;5015829;28;19926;-72
2022/06/26 06:24:51;;;;;;;;;;;21.30;99.90;;;;;;5015502;28;19933;-71
2022/06/26 06:27:18;;;;;;;;;;;21.40;99.90;;;;;;5015673;28;20020;-70
2022/06/26 06:29:45;;;;;;;;;;;21.50;99.90;;;;;;5015472;28;19980;-70
2022/06/26 06:32:13;;;;;;;;;;;21.60;99.90;;;;;;5015415;28;19926;-70
2022/06/26 06:34:40;;;;;;;;;;;21.80;99.90;;;;;;5015512;28;20325;-70
2022/06/26 06:37:08;;;;;;;;;;;22.00;99.90;;;;;;5015637;28;20436;-70
2022/06/26 06:39:34;;;;;;;;;;;22.10;99.90;;;;;;5015684;28;20294;-70
2022/06/26 06:42:01;;;;;;;;;;;22.20;99.90;;;;;;5015239;28;19949;-70
2022/06/26 06:44:28;;;;;;;;;;;22.30;99.90;;;;;;5015319;28;19925;-70
2022/06/26 06:46:55;;;;;;;;;;;22.30;99.90;;;;;;5015589;28;19933;-70
2022/06/26 06:49:23;;;;;;;;;;;22.40;99.90;;;;;;5015380;28;19930;-70
2022/06/26 06:51:50;;;;;;;;;;;22.40;99.90;;;;;;5015423;28;19926;-70
2022/06/26 06:54:17;;;;;;;;;;;22.70;99.90;;;;;;5015307;28;20382;-70
2022/06/26 06:56:44;;;;;;;;;;;22.50;99.90;;;;;;5015006;28;20285;-70
2022/06/26 06:59:10;;;;;;;;;;;22.80;99.90;;;;;;5015336;28;19971;-70
2022/06/26 07:01:37;;;;;;;;;;;22.90;99.90;;;;;;5014969;28;19925;-70
2022/06/26 07:04:04;;;;;;;;;;;23.20;99.90;;;;;;5014874;28;19926;-70
2022/06/26 07:06:32;;;;;;;;;;;23.20;99.90;;;;;;5015343;28;19926;-70
2022/06/26 07:08:59;;;;;;;;;;;23.20;99.90;;;;;;5015200;28;19956;-70
2022/06/26 07:11:26;;;;;;;;;;;23.40;99.90;;;;;;5014902;28;20421;-70
2022/06/26 07:13:53;;;;;;;;;;;23.50;99.90;;;;;;5014882;28;19925;-70
2022/06/26 07:16:20;;;;;;;;;;;23.70;99.90;;;;;;5014053;28;20378;-70
2022/06/26 07:18:47;;;;;;;;;;;23.80;99.90;;;;;;5014661;28;19933;-70
2022/06/26 07:21:13;;;;;;;;;;;23.70;99.90;;;;;;5014583;28;20290;-70
2022/06/26 07:23:42;;;;;;;;;;;24.00;99.90;;;;;;5014611;28;20377;-70
2022/06/26 07:26:09;;;;;;;;;;;24.10;99.90;;;;;;5014583;28;19929;-70
2022/06/26 07:28:36;;;;;;;;;;;24.10;99.90;;;;;;5014597;28;19979;-70
2022/06/26 07:31:02;;;;;;;;;;;24.10;99.90;;;;;;5014439;28;19933;-70
2022/06/26 07:36:14;;;;;;;;;;;24.10;99.90;;;;;;5014403;28;19927;-70
2022/06/26 07:38:42;;;;;;;;;;;24.50;99.90;;;;;;5014518;28;19926;-70
2022/06/26 07:41:09;;;;;;;;;;;24.70;99.90;;;;;;5014409;28;19929;-70
2022/06/26 07:43:36;;;;;;;;;;;25.10;99.90;;;;;;5014074;28;19926;-72
2022/06/26 07:46:03;;;;;;;;;;;24.90;99.00;;;;;;5014037;28;19925;-72
2022/06/26 07:48:30;;;;;;;;;;;24.60;99.30;;;;;;5014225;28;19933;-72
2022/06/26 07:50:56;;;;;;;;;;;24.90;99.70;;;;;;5014048;28;20377;-72
2022/06/26 07:53:23;;;;;;;;;;;25.50;99.40;;;;;;5014050;28;19926;-70
2022/06/26 07:55:51;;;;;;;;;;;25.80;98.50;;;;;;5013933;28;19958;-68
2022/06/26 07:58:18;;;;;;;;;;;25.90;97.90;;;;;;5014146;28;19926;-69
2022/06/26 08:00:45;;;;;;;;;;;25.80;98.10;;;;;;5013929;28;19949;-72
2022/06/26 08:03:13;;;;;;;;;;;26.10;97.90;;;;;;5013719;28;19930;-72
2022/06/26 08:05:41;;;;;;;;;;;26.40;97.60;;;;;;5013702;28;20028;-72
2022/06/26 08:08:08;;;;;;;;;;;26.30;97.50;;;;;;5013863;28;19932;-72
2022/06/26 08:10:35;;;;;;;;;;;26.50;97.60;;;;;;5013768;28;20352;-71
2022/06/26 08:13:04;;;;;;;;;;;26.00;97.60;;;;;;5013594;28;19979;-71
2022/06/26 08:15:31;;;;;;;;;;;26.30;97.10;;;;;;5013406;28;19932;-72
2022/06/26 08:17:58;;;;;;;;;;;26.10;97.80;;;;;;5013956;28;19925;-71
2022/06/26 08:20:25;;;;;;;;;;;25.90;98.20;;;;;;5013639;28;19925;-72
2022/06/26 08:22:52;;;;;;;;;;;26.00;98.30;;;;;;5013479;28;19929;-71
2022/06/26 08:25:18;;;;;;;;;;;26.40;97.70;;;;;;5013386;28;19972;-72
2022/06/26 08:27:45;;;;;;;;;;;26.60;97.10;;;;;;5012670;28;19932;-72
2022/06/26 08:30:13;;;;;;;;;;;27.20;96.70;;;;;;5013642;28;19929;-72
2022/06/26 08:32:40;;;;;;;;;;;27.60;96.00;;;;;;5013419;28;20305;-72
2022/06/26 08:35:09;;;;;;;;;;;27.70;95.70;;;;;;5013603;28;19926;-71
2022/06/26 08:37:36;;;;;;;;;;;27.70;96.30;;;;;;5012229;28;19933;-72
2022/06/26 08:40:03;;;;;;;;;;;28.80;95.10;;;;;;5013324;28;19932;-71
2022/06/26 08:42:31;;;;;;;;;;;28.70;95.30;;;;;;5013289;28;19935;-73
2022/06/26 08:44:58;;;;;;;;;;;27.80;95.80;;;;;;5013139;28;19937;-71
2022/06/26 08:47:27;;;;;;;;;;;28.30;95.00;;;;;;5013204;28;20024;-71
2022/06/26 08:49:54;;;;;;;;;;;29.10;94.50;;;;;;5013333;28;19930;-72
2022/06/26 08:52:22;;;;;;;;;;;29.10;94.40;;;;;;5013089;28;19930;-72
2022/06/26 08:54:49;;;;;;;;;;;29.70;93.80;;;;;;5012946;28;19980;-71
2022/06/26 08:57:16;;;;;;;;;;;30.40;92.90;;;;;;5012901;28;19938;-72
2022/06/26 08:59:43;;;;;;;;;;;31.30;92.20;;;;;;5013024;28;19925;-71
2022/06/26 09:02:10;;;;;;;;;;;31.50;91.40;;;;;;5012950;28;19925;-72
2022/06/26 09:04:38;;;;;;;;;;;29.80;92.10;;;;;;5013211;28;19933;-71
2022/06/26 09:07:07;;;;;;;;;;;29.90;92.40;;;;;;5012872;28;19925;-71
2022/06/26 09:09:33;;;;;;;;;;;28.40;93.10;;;;;;5012845;28;19933;-71
2022/06/26 09:12:01;;;;;;;;;;;28.90;93.30;;;;;;5012789;28;20058;-71
2022/06/26 09:14:29;;;;;;;;;;;29.90;92.60;;;;;;5012636;28;19925;-71
2022/06/26 09:16:56;;;;;;;;;;;30.30;91.40;;;;;;5012801;28;19983;-72
2022/06/26 09:19:24;;;;;;;;;;;29.80;91.60;;;;;;5012692;28;20297;-72
2022/06/26 09:21:53;;;;;;;;;;;30.70;91.30;;;;;;5012407;28;20500;-72
2022/06/26 09:24:21;;;;;;;;;;;31.40;90.50;;;;;;5012846;28;19948;-72
2022/06/26 09:27:01;;;;;;;;;;;31.80;89.90;;;;;;5012517;28;20041;-72
2022/06/26 09:29:28;;;;;;;;;;;32.80;87.70;;;;;;5012684;28;19933;-72
2022/06/26 09:31:55;;;;;;;;;;;33.20;85.70;;;;;;5012495;28;19954;-71
2022/06/26 09:34:23;;;;;;;;;;;33.10;85.50;;;;;;5012325;28;20333;-71
2022/06/26 09:37:03;;;;;;;;;;;33.60;85.50;;;;;;5012303;28;19929;-71
2022/06/26 09:39:31;;;;;;;;;;;33.10;84.50;;;;;;5012313;28;19963;-72
2022/06/26 09:41:58;;;;;;;;;;;32.20;84.70;;;;;;5012275;28;19926;-72
2022/06/26 09:44:24;;;;;;;;;;;31.50;85.90;;;;;;5012324;28;19956;-71
2022/06/26 09:46:51;;;;;;;;;;;32.40;85.30;;;;;;5012317;28;19929;-72
2022/06/26 09:49:36;;;;;;;;;;;31.30;87.20;;;;;;5012357;28;20410;-72
2022/06/26 09:52:05;;;;;;;;;;;31.60;85.50;;;;;;5012585;28;19932;-71
2022/06/26 09:54:32;;;;;;;;;;;32.90;84.50;;;;;;5012319;28;20305;-72
2022/06/26 09:57:04;;;;;;;;;;;33.90;81.20;;;;;;5012144;28;20304;-72
2022/06/26 09:59:31;;;;;;;;;;;33.70;81.30;;;;;;5012602;28;20365;-71
2022/06/26 10:07:28;;;;;;;;;;;35.80;79.40;;;;;;5012453;28;19948;-72
2022/06/26 10:09:57;;;;;;;;;;;35.80;78.30;;;;;;5012389;28;20000;-72
2022/06/26 10:12:29;;;;;;;;;;;33.90;79.40;;;;;;5012120;28;20386;-71
2022/06/26 10:14:56;;;;;;;;;;;32.70;81.80;;;;;;5012042;28;19980;-72
2022/06/26 10:17:41;;;;;;;;;;;33.50;81.80;;;;;;5012493;28;19925;-71
2022/06/26 10:20:09;;;;;;;;;;;33.00;81.50;;;;;;5012305;28;20294;-71
2022/06/26 10:22:46;;;;;;;;;;;32.30;81.90;;;;;;5012054;28;19980;-72
2022/06/26 10:25:21;;;;;;;;;;;33.20;82.60;;;;;;5012047;28;19933;-71
2022/06/26 10:27:48;;;;;;;;;;;33.20;82.50;;;;;;5011844;28;19925;-72
2022/06/26 10:30:18;;;;;;;;;;;34.30;80.80;;;;;;5012395;28;20275;-71
2022/06/26 10:32:45;;;;;;;;;;;35.20;80.10;;;;;;5012167;28;20016;-71
2022/06/26 10:35:13;;;;;;;;;;;36.20;77.20;;;;;;5011753;28;19980;-72
2022/06/26 10:37:41;;;;;;;;;;;35.10;74.10;;;;;;5011894;28;20314;-71
2022/06/26 10:40:14;;;;;;;;;;;36.30;74.50;;;;;;5012089;28;19926;-72
2022/06/26 10:42:52;;;;;;;;;;;35.70;75.00;;;;;;5011781;28;19934;-72
2022/06/26 10:45:20;;;;;;;;;;;35.90;75.10;;;;;;5011732;28;20027;-72
2022/06/26 10:47:48;;;;;;;;;;;34.80;75.50;;;;;;5011969;28;19926;-72
2022/06/26 10:50:25;;;;;;;;;;;35.90;76.20;;;;;;5012440;28;19933;-72
2022/06/26 10:52:52;;;;;;;;;;;36.30;75.70;;;;;;5015116;28;19926;-72
2022/06/26 10:55:21;;;;;;;;;;;36.40;75.10;;;;;;5014995;28;19925;-72
2022/06/26 10:57:49;;;;;;;;;;;34.10;78.10;;;;;;5015103;28;20011;-71
2022/06/26 11:00:16;;;;;;;;;;;34.60;77.80;;;;;;5015071;28;19937;-72
2022/06/26 11:02:45;;;;;;;;;;;35.10;78.20;;;;;;5015062;28;19936;-72
2022/06/26 11:05:15;;;;;;;;;;;36.60;75.10;;;;;;5015020;28;20320;-72
2022/06/26 11:07:43;;;;;;;;;;;37.10;74.60;;;;;;5015521;28;19932;-72
2022/06/26 11:10:12;;;;;;;;;;;35.50;74.50;;;;;;5014820;28;19925;-72
2022/06/26 11:12:44;;;;;;;;;;;34.40;76.30;;;;;;5014769;28;20017;-72
2022/06/26 11:15:23;;;;;;;;;;;33.80;77.60;;;;;;5014591;28;19932;-72
2022/06/26 11:17:54;;;;;;;;;;;34.20;76.80;;;;;;5015151;28;20452;-72
2022/06/26 11:23:11;;;;;;;;;;;34.00;76.60;;;;;;5014615;28;19928;-71
2022/06/26 11:25:39;;;;;;;;;;;34.90;76.50;;;;;;5014535;28;19925;-71
2022/06/26 11:28:08;;;;;;;;;;;33.80;76.90;;;;;;5014828;28;19929;-72
2022/06/26 11:30:35;;;;;;;;;;;34.60;76.70;;;;;;5014602;28;19929;-72
2022/06/26 11:33:02;;;;;;;;;;;34.20;77.20;;;;;;5014434;28;19980;-70
2022/06/26 11:35:29;;;;;;;;;;;34.00;77.70;;;;;;5014040;28;19979;-70
2022/06/26 11:37:56;;;;;;;;;;;34.40;76.70;;;;;;5014400;28;19948;-70
2022/06/26 11:40:23;;;;;;;;;;;34.00;77.70;;;;;;5014432;28;20329;-70
2022/06/26 11:42:54;;;;;;;;;;;35.90;75.00;;;;;;5014429;28;20313;-69
2022/06/26 11:45:23;;;;;;;;;;;36.80;73.30;;;;;;5014057;28;20390;-70
2022/06/26 11:47:50;;;;;;;;;;;36.60;73.60;;;;;;5014003;28;19931;-70
2022/06/26 11:50:20;;;;;;;;;;;35.60;74.10;;;;;;5014355;28;19980;-70
2022/06/26 11:52:51;;;;;;;;;;;36.20;74.40;;;;;;5013894;28;19979;-70
2022/06/26 11:55:18;;;;;;;;;;;36.00;74.70;;;;;;5013732;28;20378;-70
2022/06/26 11:57:45;;;;;;;;;;;35.50;74.00;;;;;;5014178;28;19930;-70
2022/06/26 12:00:13;;;;;;;;;;;37.50;73.50;;;;;;5013934;28;19930;-70
2022/06/26 12:02:43;;;;;;;;;;;39.10;69.30;;;;;;5013824;28;20400;-70
2022/06/26 12:05:10;;;;;;;;;;;38.00;70.20;;;;;;5013723;28;19925;-70
2022/06/26 12:07:41;;;;;;;;;;;38.60;70.30;;;;;;5013747;28;19926;-70
2022/06/26 12:10:08;;;;;;;;;;;39.10;69.20;;;;;;5013654;28;20008;-70
2022/06/26 12:12:35;;;;;;;;;;;39.30;67.70;;;;;;5013962;28;19929;-68
2022/06/26 12:15:02;;;;;;;;;;;37.90;71.30;;;;;;5013429;28;19925;-68
2022/06/26 12:17:30;;;;;;;;;;;35.70;74.70;;;;;;5013800;28;19926;-68
2022/06/26 12:20:07;;;;;;;;;;;35.10;75.70;;;;;;5013671;28;19933;-68
2022/06/26 12:22:34;;;;;;;;;;;34.00;76.40;;;;;;5013614;28;19925;-70
2022/06/26 12:25:02;;;;;;;;;;;34.00;76.30;;;;;;5013339;28;19926;-70
2022/06/26 12:27:35;;;;;;;;;;;33.40;77.00;;;;;;5013353;28;19925;-70
2022/06/26 12:30:26;;;;;;;;;;;32.40;78.30;;;;;;5013593;28;19926;-70
2022/06/26 12:32:53;;;;;;;;;;;32.30;79.00;;;;;;5002894;28;19929;-70
2022/06/26 12:35:21;;;;;;;;;;;32.30;80.90;;;;;;5013424;28;19966;-71
2022/06/26 12:37:49;;;;;;;;;;;33.40;78.90;;;;;;5013657;28;19925;-71
2022/06/26 12:40:16;;;;;;;;;;;35.30;75.70;;;;;;5013866;28;19926;-71
2022/06/26 12:42:42;;;;;;;;;;;34.10;75.70;;;;;;5013601;28;20021;-71
2022/06/26 12:45:10;;;;;;;;;;;33.40;78.30;;;;;;5013543;28;20337;-72
2022/06/26 12:47:37;;;;;;;;;;;33.60;77.90;;;;;;5013213;28;19925;-71
2022/06/26 12:50:04;;;;;;;;;;;34.10;76.40;;;;;;5013223;28;20356;-72
2022/06/26 12:52:33;;;;;;;;;;;33.20;77.70;;;;;;5012731;28;20299;-71
2022/06/26 12:55:00;;;;;;;;;;;32.60;79.10;;;;;;5013029;28;20017;-70
2022/06/26 12:57:27;;;;;;;;;;;32.40;78.60;;;;;;5013141;28;20436;-70
2022/06/26 13:00:01;;;;;;;;;;;32.90;78.10;;;;;;5013004;28;20367;-70
2022/06/26 13:02:28;;;;;;;;;;;32.50;78.60;;;;;;5012914;28;20252;-70
2022/06/26 13:04:55;;;;;;;;;;;33.40;77.70;;;;;;5012764;28;19926;-69
2022/06/26 13:07:22;;;;;;;;;;;34.70;74.80;;;;;;5012792;28;19944;-70
2022/06/26 13:09:50;;;;;;;;;;;34.90;74.40;;;;;;5012901;28;19925;-70
2022/06/26 13:12:17;;;;;;;;;;;34.40;75.50;;;;;;5012904;28;19926;-70
2022/06/26 13:14:44;;;;;;;;;;;34.50;74.90;;;;;;5012072;28;20468;-70
2022/06/26 13:17:12;;;;;;;;;;;35.40;73.80;;;;;;5012547;28;20008;-70
2022/06/26 13:19:54;;;;;;;;;;;35.30;73.30;;;;;;5013036;28;19948;-70
2022/06/26 13:22:21;;;;;;;;;;;34.90;73.70;;;;;;5012856;28;19933;-70
2022/06/26 13:24:48;;;;;;;;;;;34.60;74.30;;;;;;5012523;28;19925;-70
2022/06/26 13:27:16;;;;;;;;;;;35.40;74.60;;;;;;5012139;28;19929;-70
2022/06/26 13:29:43;;;;;;;;;;;35.90;73.00;;;;;;5012446;28;19926;-70
2022/06/26 13:32:10;;;;;;;;;;;37.00;71.70;;;;;;5012249;28;19925;-71
2022/06/26 13:34:37;;;;;;;;;;;35.50;72.00;;;;;;5012281;28;20377;-72
2022/06/26 13:37:04;;;;;;;;;;;35.80;72.30;;;;;;5012382;28;20053;-71
2022/06/26 13:39:31;;;;;;;;;;;35.80;70.70;;;;;;5012364;28;19925;-71
2022/06/26 13:41:58;;;;;;;;;;;36.20;71.40;;;;;;5012436;28;20388;-72
2022/06/26 13:44:26;;;;;;;;;;;36.50;70.70;;;;;;5012175;28;19925;-71
2022/06/26 13:46:55;;;;;;;;;;;37.10;70.70;;;;;;5012144;28;19976;-72
2022/06/26 13:49:22;;;;;;;;;;;36.70;69.50;;;;;;5012247;28;19973;-71
2022/06/26 13:51:48;;;;;;;;;;;37.20;69.70;;;;;;5012057;28;19925;-72
2022/06/26 13:54:15;;;;;;;;;;;35.60;71.20;;;;;;5012104;28;20266;-71
2022/06/26 13:56:42;;;;;;;;;;;36.30;71.20;;;;;;5012234;28;19933;-71
2022/06/26 13:59:09;;;;;;;;;;;36.30;71.80;;;;;;5012077;28;20459;-72
2022/06/26 14:01:37;;;;;;;;;;;35.40;73.90;;;;;;5012199;28;19995;-71
2022/06/26 14:04:04;;;;;;;;;;;35.60;73.40;;;;;;5012197;28;19929;-71
2022/06/26 14:06:31;;;;;;;;;;;36.10;73.20;;;;;;5011870;28;19929;-71
2022/06/26 14:08:58;;;;;;;;;;;35.00;73.00;;;;;;5012171;28;19932;-71
2022/06/26 14:11:25;;;;;;;;;;;35.90;72.40;;;;;;5012033;28;20381;-71
2022/06/26 14:13:52;;;;;;;;;;;35.60;72.00;;;;;;5012056;28;19925;-73
2022/06/26 14:16:18;;;;;;;;;;;35.20;71.50;;;;;;5011776;28;19945;-71
2022/06/26 14:18:47;;;;;;;;;;;35.30;71.50;;;;;;5012008;28;20344;-70
2022/06/26 14:21:14;;;;;;;;;;;37.10;69.80;;;;;;5012149;28;19997;-70
2022/06/26 14:26:25;;;;;;;;;;;35.60;71.90;;;;;;5013984;28;19929;-69
2022/06/26 14:28:52;;;;;;;;;;;35.10;73.40;;;;;;5015694;28;19972;-72
2022/06/26 14:31:19;;;;;;;;;;;35.50;71.70;;;;;;5015691;28;19929;-71
2022/06/26 14:33:47;;;;;;;;;;;36.40;71.50;;;;;;5015640;28;19933;-71
2022/06/26 14:36:14;;;;;;;;;;;36.70;70.60;;;;;;5015559;28;19930;-71
2022/06/26 14:38:41;;;;;;;;;;;35.50;70.20;;;;;;5015669;28;20004;-71